Terminal Aerodrome Forecast
Issued by NWS Caribou, ME

Home | Current Version | Previous Version | Text Only | Print | Product List | Glossary On
Versions: 1 2 3 4 5 6 7 8 9 10 11 12 13 14
000
FTUS41 KCAR 250520
TAFCAR
TAF
KCAR 250520Z 2506/2606 VRB02KT P6SM BKN035
     FM251100 VRB02KT 2SM BR SCT025
     FM251300 18006KT P6SM SCT020
     FM251600 19008KT P6SM SCT250=

USA.gov is the U.S. government's official web portal to all federal, state and local government web resources and services.